sensor_id;sensor_type;location;lat;lon;timestamp;temperature;humidity
21031;DHT22;61072;47.808;7.636;2023-12-20T00:01:11;7.30;99.90
21031;DHT22;61072;47.808;7.636;2023-12-20T00:03:38;7.30;99.90
21031;DHT22;61072;47.808;7.636;2023-12-20T00:06:08;7.30;99.90
21031;DHT22;61072;47.808;7.636;2023-12-20T00:08:36;7.30;99.90
21031;DHT22;61072;47.808;7.636;2023-12-20T00:11:03;7.30;99.90
21031;DHT22;61072;47.808;7.636;2023-12-20T00:13:29;7.30;99.90
21031;DHT22;61072;47.808;7.636;2023-12-20T00:15:56;7.30;99.90
21031;DHT22;61072;47.808;7.636;2023-12-20T00:18:23;7.30;99.90
21031;DHT22;61072;47.808;7.636;2023-12-20T00:20:50;7.30;99.90
21031;DHT22;61072;47.808;7.636;2023-12-20T00:23:17;7.30;99.90
21031;DHT22;61072;47.808;7.636;2023-12-20T00:25:44;7.20;99.90
21031;DHT22;61072;47.808;7.636;2023-12-20T00:28:10;7.20;99.90
21031;DHT22;61072;47.808;7.636;2023-12-20T00:30:37;7.10;99.90
21031;DHT22;61072;47.808;7.636;2023-12-20T00:33:04;7.10;99.90
21031;DHT22;61072;47.808;7.636;2023-12-20T00:35:31;7.10;99.90
21031;DHT22;61072;47.808;7.636;2023-12-20T00:37:58;7.10;99.90
21031;DHT22;61072;47.808;7.636;2023-12-20T00:40:25;7.10;99.90
21031;DHT22;61072;47.808;7.636;2023-12-20T00:42:52;7.10;99.90
21031;DHT22;61072;47.808;7.636;2023-12-20T00:45:19;7.10;99.90
21031;DHT22;61072;47.808;7.636;2023-12-20T00:47:45;7.10;99.90
21031;DHT22;61072;47.808;7.636;2023-12-20T00:50:13;7.10;99.90
21031;DHT22;61072;47.808;7.636;2023-12-20T00:52:40;7.10;99.90
21031;DHT22;61072;47.808;7.636;2023-12-20T00:55:07;7.10;99.90
21031;DHT22;61072;47.808;7.636;2023-12-20T00:57:34;7.10;99.90
21031;DHT22;61072;47.808;7.636;2023-12-20T01:00:01;7.10;99.90
21031;DHT22;61072;47.808;7.636;2023-12-20T01:02:28;7.20;99.90
21031;DHT22;61072;47.808;7.636;2023-12-20T01:04:55;7.20;99.90
21031;DHT22;61072;47.808;7.636;2023-12-20T01:07:22;7.20;99.90
21031;DHT22;61072;47.808;7.636;2023-12-20T01:09:49;7.20;99.90
21031;DHT22;61072;47.808;7.636;2023-12-20T01:12:16;7.20;99.90
21031;DHT22;61072;47.808;7.636;2023-12-20T01:14:42;7.20;99.90
21031;DHT22;61072;47.808;7.636;2023-12-20T01:17:09;7.10;99.90
21031;DHT22;61072;47.808;7.636;2023-12-20T01:19:36;7.20;99.90
21031;DHT22;61072;47.808;7.636;2023-12-20T01:22:03;7.20;99.90
21031;DHT22;61072;47.808;7.636;2023-12-20T01:24:30;7.10;99.90
21031;DHT22;61072;47.808;7.636;2023-12-20T01:26:57;7.10;99.90
21031;DHT22;61072;47.808;7.636;2023-12-20T01:29:24;7.10;99.90
21031;DHT22;61072;47.808;7.636;2023-12-20T01:31:50;7.10;99.90
21031;DHT22;61072;47.808;7.636;2023-12-20T01:34:17;7.10;99.90
21031;DHT22;61072;47.808;7.636;2023-12-20T01:36:45;7.10;99.90
21031;DHT22;61072;47.808;7.636;2023-12-20T01:39:11;7.10;99.90
21031;DHT22;61072;47.808;7.636;2023-12-20T01:41:53;7.10;99.90
21031;DHT22;61072;47.808;7.636;2023-12-20T01:44:20;7.10;99.90
21031;DHT22;61072;47.808;7.636;2023-12-20T01:46:47;7.10;99.90
21031;DHT22;61072;47.808;7.636;2023-12-20T01:49:14;7.10;99.90
21031;DHT22;61072;47.808;7.636;2023-12-20T01:51:42;7.00;99.90
21031;DHT22;61072;47.808;7.636;2023-12-20T01:54:10;7.00;99.90
21031;DHT22;61072;47.808;7.636;2023-12-20T01:56:37;7.00;99.90
21031;DHT22;61072;47.808;7.636;2023-12-20T01:59:04;7.00;99.90
21031;DHT22;61072;47.808;7.636;2023-12-20T02:01:31;7.00;99.90
21031;DHT22;61072;47.808;7.636;2023-12-20T02:03:59;7.10;99.90
21031;DHT22;61072;47.808;7.636;2023-12-20T02:06:30;7.00;99.90
21031;DHT22;61072;47.808;7.636;2023-12-20T02:08:58;7.00;99.90
21031;DHT22;61072;47.808;7.636;2023-12-20T02:11:26;7.00;99.90
21031;DHT22;61072;47.808;7.636;2023-12-20T02:13:53;7.00;99.90
21031;DHT22;61072;47.808;7.636;2023-12-20T02:16:21;7.00;99.90
21031;DHT22;61072;47.808;7.636;2023-12-20T02:18:48;7.00;99.90
21031;DHT22;61072;47.808;7.636;2023-12-20T02:21:15;7.00;99.90
21031;DHT22;61072;47.808;7.636;2023-12-20T02:23:41;7.00;99.90
21031;DHT22;61072;47.808;7.636;2023-12-20T02:26:08;7.00;99.90
21031;DHT22;61072;47.808;7.636;2023-12-20T02:28:35;7.00;99.90
21031;DHT22;61072;47.808;7.636;2023-12-20T02:31:02;7.00;99.90
21031;DHT22;61072;47.808;7.636;2023-12-20T02:33:29;7.00;99.90
21031;DHT22;61072;47.808;7.636;2023-12-20T02:35:56;7.00;99.90
21031;DHT22;61072;47.808;7.636;2023-12-20T02:38:23;7.00;99.90
21031;DHT22;61072;47.808;7.636;2023-12-20T02:40:50;7.00;99.90
21031;DHT22;61072;47.808;7.636;2023-12-20T02:43:16;7.00;99.90
21031;DHT22;61072;47.808;7.636;2023-12-20T02:45:43;7.00;99.90
21031;DHT22;61072;47.808;7.636;2023-12-20T02:48:10;7.00;99.90
21031;DHT22;61072;47.808;7.636;2023-12-20T02:50:37;7.00;99.90
21031;DHT22;61072;47.808;7.636;2023-12-20T02:53:03;7.00;99.90
21031;DHT22;61072;47.808;7.636;2023-12-20T02:55:30;7.00;99.90
21031;DHT22;61072;47.808;7.636;2023-12-20T02:57:57;7.00;99.90
21031;DHT22;61072;47.808;7.636;2023-12-20T03:00:24;7.00;99.90
21031;DHT22;61072;47.808;7.636;2023-12-20T03:02:51;7.00;99.90
21031;DHT22;61072;47.808;7.636;2023-12-20T03:05:17;7.00;99.90
21031;DHT22;61072;47.808;7.636;2023-12-20T03:07:44;7.00;99.90
21031;DHT22;61072;47.808;7.636;2023-12-20T03:10:12;7.00;99.90
21031;DHT22;61072;47.808;7.636;2023-12-20T03:12:49;7.00;99.90
21031;DHT22;61072;47.808;7.636;2023-12-20T03:15:16;7.00;99.90
21031;DHT22;61072;47.808;7.636;2023-12-20T03:17:43;7.10;99.90
21031;DHT22;61072;47.808;7.636;2023-12-20T03:20:11;7.10;99.90
21031;DHT22;61072;47.808;7.636;2023-12-20T03:22:37;7.10;99.90
21031;DHT22;61072;47.808;7.636;2023-12-20T03:25:04;7.10;99.90
21031;DHT22;61072;47.808;7.636;2023-12-20T03:27:31;7.10;99.90
21031;DHT22;61072;47.808;7.636;2023-12-20T03:29:58;7.10;99.90
21031;DHT22;61072;47.808;7.636;2023-12-20T03:32:24;7.10;99.90
21031;DHT22;61072;47.808;7.636;2023-12-20T03:34:51;7.10;99.90
21031;DHT22;61072;47.808;7.636;2023-12-20T03:37:18;7.10;99.90
21031;DHT22;61072;47.808;7.636;2023-12-20T03:39:45;7.10;99.90
21031;DHT22;61072;47.808;7.636;2023-12-20T03:42:12;7.10;99.90
21031;DHT22;61072;47.808;7.636;2023-12-20T03:44:39;7.10;99.90
21031;DHT22;61072;47.808;7.636;2023-12-20T03:47:08;7.10;99.90
21031;DHT22;61072;47.808;7.636;2023-12-20T03:49:35;7.10;99.90
21031;DHT22;61072;47.808;7.636;2023-12-20T03:52:04;7.10;99.90
21031;DHT22;61072;47.808;7.636;2023-12-20T03:54:31;7.10;99.90
21031;DHT22;61072;47.808;7.636;2023-12-20T03:56:58;7.10;99.90
21031;DHT22;61072;47.808;7.636;2023-12-20T03:59:25;7.10;99.90
21031;DHT22;61072;47.808;7.636;2023-12-20T04:01:51;7.10;99.90
21031;DHT22;61072;47.808;7.636;2023-12-20T04:04:19;7.10;99.90
21031;DHT22;61072;47.808;7.636;2023-12-20T04:06:46;7.10;99.90
21031;DHT22;61072;47.808;7.636;2023-12-20T04:09:12;7.10;99.90
21031;DHT22;61072;47.808;7.636;2023-12-20T04:11:39;7.10;99.90
21031;DHT22;61072;47.808;7.636;2023-12-20T04:14:06;7.10;99.90
21031;DHT22;61072;47.808;7.636;2023-12-20T04:16:34;7.10;99.90
21031;DHT22;61072;47.808;7.636;2023-12-20T04:19:00;7.10;99.90
21031;DHT22;61072;47.808;7.636;2023-12-20T04:21:27;7.10;99.90
21031;DHT22;61072;47.808;7.636;2023-12-20T04:23:54;7.10;99.90
21031;DHT22;61072;47.808;7.636;2023-12-20T04:26:21;7.10;99.90
21031;DHT22;61072;47.808;7.636;2023-12-20T04:28:48;7.10;99.90
21031;DHT22;61072;47.808;7.636;2023-12-20T04:31:16;7.10;99.90
21031;DHT22;61072;47.808;7.636;2023-12-20T04:33:42;7.10;99.90
21031;DHT22;61072;47.808;7.636;2023-12-20T04:36:09;7.10;99.90
21031;DHT22;61072;47.808;7.636;2023-12-20T04:38:36;7.10;99.90
21031;DHT22;61072;47.808;7.636;2023-12-20T04:41:03;7.10;99.90
21031;DHT22;61072;47.808;7.636;2023-12-20T04:43:30;7.10;99.90
21031;DHT22;61072;47.808;7.636;2023-12-20T04:45:56;7.10;99.90
21031;DHT22;61072;47.808;7.636;2023-12-20T04:48:23;7.10;99.90
21031;DHT22;61072;47.808;7.636;2023-12-20T04:50:50;7.10;99.90
21031;DHT22;61072;47.808;7.636;2023-12-20T04:53:17;7.10;99.90
21031;DHT22;61072;47.808;7.636;2023-12-20T04:55:43;7.10;99.90
21031;DHT22;61072;47.808;7.636;2023-12-20T04:58:10;7.10;99.90
21031;DHT22;61072;47.808;7.636;2023-12-20T05:00:37;7.10;99.90
21031;DHT22;61072;47.808;7.636;2023-12-20T05:03:04;7.10;99.90
21031;DHT22;61072;47.808;7.636;2023-12-20T05:05:30;7.10;99.90
21031;DHT22;61072;47.808;7.636;2023-12-20T05:07:58;7.20;99.90
21031;DHT22;61072;47.808;7.636;2023-12-20T05:10:25;7.20;99.90
21031;DHT22;61072;47.808;7.636;2023-12-20T05:12:53;7.20;99.90
21031;DHT22;61072;47.808;7.636;2023-12-20T05:15:20;7.20;99.90
21031;DHT22;61072;47.808;7.636;2023-12-20T05:17:47;7.20;99.90
21031;DHT22;61072;47.808;7.636;2023-12-20T05:20:14;7.20;99.90
21031;DHT22;61072;47.808;7.636;2023-12-20T05:22:41;7.20;99.90
21031;DHT22;61072;47.808;7.636;2023-12-20T05:25:08;7.20;99.90
21031;DHT22;61072;47.808;7.636;2023-12-20T05:27:34;7.20;99.90
21031;DHT22;61072;47.808;7.636;2023-12-20T05:30:01;7.20;99.90
21031;DHT22;61072;47.808;7.636;2023-12-20T05:32:28;7.20;99.90
21031;DHT22;61072;47.808;7.636;2023-12-20T05:34:55;7.20;99.90
21031;DHT22;61072;47.808;7.636;2023-12-20T05:37:22;7.20;99.90
21031;DHT22;61072;47.808;7.636;2023-12-20T05:39:49;7.20;99.90
21031;DHT22;61072;47.808;7.636;2023-12-20T05:42:16;7.20;99.90
21031;DHT22;61072;47.808;7.636;2023-12-20T05:44:42;7.20;99.90
21031;DHT22;61072;47.808;7.636;2023-12-20T05:47:09;7.20;99.90
21031;DHT22;61072;47.808;7.636;2023-12-20T05:49:36;7.20;99.90
21031;DHT22;61072;47.808;7.636;2023-12-20T05:52:03;7.20;99.90
21031;DHT22;61072;47.808;7.636;2023-12-20T05:54:30;7.20;99.90
21031;DHT22;61072;47.808;7.636;2023-12-20T05:56:57;7.30;99.90
21031;DHT22;61072;47.808;7.636;2023-12-20T05:59:23;7.20;99.90
21031;DHT22;61072;47.808;7.636;2023-12-20T06:01:50;7.20;99.90
21031;DHT22;61072;47.808;7.636;2023-12-20T06:04:17;7.30;99.90
21031;DHT22;61072;47.808;7.636;2023-12-20T06:06:45;7.30;99.90
21031;DHT22;61072;47.808;7.636;2023-12-20T06:09:12;7.30;99.90
21031;DHT22;61072;47.808;7.636;2023-12-20T06:11:39;7.30;99.90
21031;DHT22;61072;47.808;7.636;2023-12-20T06:14:05;7.30;99.90
21031;DHT22;61072;47.808;7.636;2023-12-20T06:16:32;7.30;99.90
21031;DHT22;61072;47.808;7.636;2023-12-20T06:18:59;7.30;99.90
21031;DHT22;61072;47.808;7.636;2023-12-20T06:21:26;7.30;99.90
21031;DHT22;61072;47.808;7.636;2023-12-20T06:23:52;7.30;99.90
21031;DHT22;61072;47.808;7.636;2023-12-20T06:26:19;7.30;99.90
21031;DHT22;61072;47.808;7.636;2023-12-20T06:28:46;7.30;99.90
21031;DHT22;61072;47.808;7.636;2023-12-20T06:31:12;7.30;99.90
21031;DHT22;61072;47.808;7.636;2023-12-20T06:33:39;7.30;99.90
21031;DHT22;61072;47.808;7.636;2023-12-20T06:36:10;7.30;99.90
21031;DHT22;61072;47.808;7.636;2023-12-20T06:38:37;7.30;99.90
21031;DHT22;61072;47.808;7.636;2023-12-20T06:41:03;7.30;99.90
21031;DHT22;61072;47.808;7.636;2023-12-20T06:43:30;7.30;99.90
21031;DHT22;61072;47.808;7.636;2023-12-20T06:46:14;7.30;99.90
21031;DHT22;61072;47.808;7.636;2023-12-20T06:48:41;7.30;99.90
21031;DHT22;61072;47.808;7.636;2023-12-20T06:51:15;7.30;99.90
21031;DHT22;61072;47.808;7.636;2023-12-20T06:53:43;7.30;99.90
21031;DHT22;61072;47.808;7.636;2023-12-20T06:56:11;7.30;99.90
21031;DHT22;61072;47.808;7.636;2023-12-20T06:58:43;7.30;99.90
21031;DHT22;61072;47.808;7.636;2023-12-20T07:01:13;7.30;99.90
21031;DHT22;61072;47.808;7.636;2023-12-20T07:03:40;7.30;99.90
21031;DHT22;61072;47.808;7.636;2023-12-20T07:06:08;7.30;99.90
21031;DHT22;61072;47.808;7.636;2023-12-20T07:08:35;7.30;99.90
21031;DHT22;61072;47.808;7.636;2023-12-20T07:11:01;7.30;99.90
21031;DHT22;61072;47.808;7.636;2023-12-20T07:13:29;7.30;99.90
21031;DHT22;61072;47.808;7.636;2023-12-20T07:15:56;7.30;99.90
21031;DHT22;61072;47.808;7.636;2023-12-20T07:18:23;7.30;99.90
21031;DHT22;61072;47.808;7.636;2023-12-20T07:20:50;7.30;99.90
21031;DHT22;61072;47.808;7.636;2023-12-20T07:23:17;7.30;99.90
21031;DHT22;61072;47.808;7.636;2023-12-20T07:25:43;7.30;99.90
21031;DHT22;61072;47.808;7.636;2023-12-20T07:28:10;7.30;99.90
21031;DHT22;61072;47.808;7.636;2023-12-20T07:30:37;7.30;99.90
21031;DHT22;61072;47.808;7.636;2023-12-20T07:33:04;7.30;99.90
21031;DHT22;61072;47.808;7.636;2023-12-20T07:35:31;7.30;99.90
21031;DHT22;61072;47.808;7.636;2023-12-20T07:37:58;7.30;99.90
21031;DHT22;61072;47.808;7.636;2023-12-20T07:40:25;7.30;99.90
21031;DHT22;61072;47.808;7.636;2023-12-20T07:42:52;7.30;99.90
21031;DHT22;61072;47.808;7.636;2023-12-20T07:45:18;7.30;99.90
21031;DHT22;61072;47.808;7.636;2023-12-20T07:47:45;7.30;99.90
21031;DHT22;61072;47.808;7.636;2023-12-20T07:50:12;7.30;99.90
21031;DHT22;61072;47.808;7.636;2023-12-20T07:52:39;7.40;99.90
21031;DHT22;61072;47.808;7.636;2023-12-20T07:55:06;7.40;99.90
21031;DHT22;61072;47.808;7.636;2023-12-20T07:57:33;7.40;99.90
21031;DHT22;61072;47.808;7.636;2023-12-20T08:00:00;7.40;99.90
21031;DHT22;61072;47.808;7.636;2023-12-20T08:02:27;7.40;99.90
21031;DHT22;61072;47.808;7.636;2023-12-20T08:04:53;7.40;99.90
21031;DHT22;61072;47.808;7.636;2023-12-20T08:07:20;7.40;99.90
21031;DHT22;61072;47.808;7.636;2023-12-20T08:09:47;7.50;99.90
21031;DHT22;61072;47.808;7.636;2023-12-20T08:12:14;7.50;99.90
21031;DHT22;61072;47.808;7.636;2023-12-20T08:14:42;7.40;99.90
21031;DHT22;61072;47.808;7.636;2023-12-20T08:17:08;7.50;99.90
21031;DHT22;61072;47.808;7.636;2023-12-20T08:19:35;7.50;99.90
21031;DHT22;61072;47.808;7.636;2023-12-20T08:22:02;7.50;99.90
21031;DHT22;61072;47.808;7.636;2023-12-20T08:24:29;7.50;99.90
21031;DHT22;61072;47.808;7.636;2023-12-20T08:26:56;7.50;99.90
21031;DHT22;61072;47.808;7.636;2023-12-20T08:29:23;7.50;99.90
21031;DHT22;61072;47.808;7.636;2023-12-20T08:31:53;7.50;99.90
21031;DHT22;61072;47.808;7.636;2023-12-20T08:34:20;7.50;99.90
21031;DHT22;61072;47.808;7.636;2023-12-20T08:36:48;7.50;99.90
21031;DHT22;61072;47.808;7.636;2023-12-20T08:39:14;7.40;99.90
21031;DHT22;61072;47.808;7.636;2023-12-20T08:41:41;7.50;99.90
21031;DHT22;61072;47.808;7.636;2023-12-20T08:44:08;7.50;99.90
21031;DHT22;61072;47.808;7.636;2023-12-20T08:46:36;7.50;99.90
21031;DHT22;61072;47.808;7.636;2023-12-20T08:49:02;7.50;99.90
21031;DHT22;61072;47.808;7.636;2023-12-20T08:51:29;7.50;99.90
21031;DHT22;61072;47.808;7.636;2023-12-20T08:53:56;7.50;99.90
21031;DHT22;61072;47.808;7.636;2023-12-20T08:56:23;7.50;99.90
21031;DHT22;61072;47.808;7.636;2023-12-20T08:58:49;7.50;99.90
21031;DHT22;61072;47.808;7.636;2023-12-20T09:01:16;7.50;99.90
21031;DHT22;61072;47.808;7.636;2023-12-20T09:03:43;7.60;99.90
21031;DHT22;61072;47.808;7.636;2023-12-20T09:06:10;7.60;99.90
21031;DHT22;61072;47.808;7.636;2023-12-20T09:08:37;7.60;99.90
21031;DHT22;61072;47.808;7.636;2023-12-20T09:11:04;7.60;99.90
21031;DHT22;61072;47.808;7.636;2023-12-20T09:13:31;7.60;99.90
21031;DHT22;61072;47.808;7.636;2023-12-20T09:15:58;7.60;99.90
21031;DHT22;61072;47.808;7.636;2023-12-20T09:18:25;7.60;99.90
21031;DHT22;61072;47.808;7.636;2023-12-20T09:20:52;7.70;99.90
21031;DHT22;61072;47.808;7.636;2023-12-20T09:23:19;7.70;99.90
21031;DHT22;61072;47.808;7.636;2023-12-20T09:25:45;7.70;99.90
21031;DHT22;61072;47.808;7.636;2023-12-20T09:28:12;7.70;99.90
21031;DHT22;61072;47.808;7.636;2023-12-20T09:30:39;7.70;99.90
21031;DHT22;61072;47.808;7.636;2023-12-20T09:33:07;7.70;99.90
21031;DHT22;61072;47.808;7.636;2023-12-20T09:35:35;7.80;99.90
21031;DHT22;61072;47.808;7.636;2023-12-20T09:38:02;7.80;99.90
21031;DHT22;61072;47.808;7.636;2023-12-20T09:40:29;7.80;99.90
21031;DHT22;61072;47.808;7.636;2023-12-20T09:43:03;7.80;99.90
21031;DHT22;61072;47.808;7.636;2023-12-20T09:45:31;7.80;99.90
21031;DHT22;61072;47.808;7.636;2023-12-20T09:47:59;7.90;99.90
21031;DHT22;61072;47.808;7.636;2023-12-20T09:50:26;7.90;99.90
21031;DHT22;61072;47.808;7.636;2023-12-20T09:52:54;7.90;99.90
21031;DHT22;61072;47.808;7.636;2023-12-20T09:55:25;7.90;99.90
21031;DHT22;61072;47.808;7.636;2023-12-20T09:57:52;8.00;99.90
21031;DHT22;61072;47.808;7.636;2023-12-20T10:00:19;8.00;99.90
21031;DHT22;61072;47.808;7.636;2023-12-20T10:02:50;8.00;99.90
21031;DHT22;61072;47.808;7.636;2023-12-20T10:05:30;8.00;99.90
21031;DHT22;61072;47.808;7.636;2023-12-20T10:07:58;8.10;99.90
21031;DHT22;61072;47.808;7.636;2023-12-20T10:10:26;8.10;99.90
21031;DHT22;61072;47.808;7.636;2023-12-20T10:13:09;8.20;99.90
21031;DHT22;61072;47.808;7.636;2023-12-20T10:15:37;8.20;99.90
21031;DHT22;61072;47.808;7.636;2023-12-20T10:18:04;8.20;99.90
21031;DHT22;61072;47.808;7.636;2023-12-20T10:20:32;8.30;99.90
21031;DHT22;61072;47.808;7.636;2023-12-20T10:23:00;8.30;99.90
21031;DHT22;61072;47.808;7.636;2023-12-20T10:25:27;8.30;99.90
21031;DHT22;61072;47.808;7.636;2023-12-20T10:28:16;8.40;99.90
21031;DHT22;61072;47.808;7.636;2023-12-20T10:30:49;8.40;99.90
21031;DHT22;61072;47.808;7.636;2023-12-20T10:33:27;8.40;99.90
21031;DHT22;61072;47.808;7.636;2023-12-20T10:35:54;8.50;99.90
21031;DHT22;61072;47.808;7.636;2023-12-20T10:38:22;8.50;99.90
21031;DHT22;61072;47.808;7.636;2023-12-20T10:40:49;8.50;99.90
21031;DHT22;61072;47.808;7.636;2023-12-20T10:43:20;8.50;99.90
21031;DHT22;61072;47.808;7.636;2023-12-20T10:45:46;8.50;99.90
21031;DHT22;61072;47.808;7.636;2023-12-20T10:48:13;8.40;99.90
21031;DHT22;61072;47.808;7.636;2023-12-20T10:50:41;8.40;99.90
21031;DHT22;61072;47.808;7.636;2023-12-20T10:53:08;8.40;99.90
21031;DHT22;61072;47.808;7.636;2023-12-20T10:55:34;8.40;99.90
21031;DHT22;61072;47.808;7.636;2023-12-20T10:58:09;8.30;99.90
21031;DHT22;61072;47.808;7.636;2023-12-20T11:00:40;8.20;99.90
21031;DHT22;61072;47.808;7.636;2023-12-20T11:03:11;8.20;99.90
21031;DHT22;61072;47.808;7.636;2023-12-20T11:05:47;8.20;99.90
21031;DHT22;61072;47.808;7.636;2023-12-20T11:08:22;8.20;99.90
21031;DHT22;61072;47.808;7.636;2023-12-20T11:13:58;8.20;99.90
21031;DHT22;61072;47.808;7.636;2023-12-20T11:16:26;8.10;99.90
21031;DHT22;61072;47.808;7.636;2023-12-20T11:19:06;8.10;99.90
21031;DHT22;61072;47.808;7.636;2023-12-20T11:21:34;8.00;99.90
21031;DHT22;61072;47.808;7.636;2023-12-20T11:24:02;8.10;99.90
21031;DHT22;61072;47.808;7.636;2023-12-20T11:26:30;8.10;99.90
21031;DHT22;61072;47.808;7.636;2023-12-20T11:29:34;8.00;99.90
21031;DHT22;61072;47.808;7.636;2023-12-20T11:35:39;8.00;99.90
21031;DHT22;61072;47.808;7.636;2023-12-20T11:37:40;7.90;99.90
21031;DHT22;61072;47.808;7.636;2023-12-20T11:40:15;7.90;99.90
21031;DHT22;61072;47.808;7.636;2023-12-20T11:42:44;7.80;99.90
21031;DHT22;61072;47.808;7.636;2023-12-20T11:45:14;7.80;99.90
21031;DHT22;61072;47.808;7.636;2023-12-20T11:47:46;7.80;99.90
21031;DHT22;61072;47.808;7.636;2023-12-20T11:50:15;7.90;99.90
21031;DHT22;61072;47.808;7.636;2023-12-20T11:52:42;7.90;99.90
21031;DHT22;61072;47.808;7.636;2023-12-20T11:55:08;8.00;99.90
21031;DHT22;61072;47.808;7.636;2023-12-20T11:57:36;8.00;99.90
21031;DHT22;61072;47.808;7.636;2023-12-20T12:00:03;8.10;99.90
21031;DHT22;61072;47.808;7.636;2023-12-20T12:02:30;8.10;99.90
21031;DHT22;61072;47.808;7.636;2023-12-20T12:04:59;8.20;99.90
21031;DHT22;61072;47.808;7.636;2023-12-20T12:07:26;8.20;99.90
21031;DHT22;61072;47.808;7.636;2023-12-20T12:09:53;8.20;99.90
21031;DHT22;61072;47.808;7.636;2023-12-20T12:12:20;8.20;99.90
21031;DHT22;61072;47.808;7.636;2023-12-20T12:14:47;8.20;99.90
21031;DHT22;61072;47.808;7.636;2023-12-20T12:17:15;8.10;99.90
21031;DHT22;61072;47.808;7.636;2023-12-20T12:19:42;8.10;99.90
21031;DHT22;61072;47.808;7.636;2023-12-20T12:22:12;8.00;99.90
21031;DHT22;61072;47.808;7.636;2023-12-20T12:24:44;7.90;99.90
21031;DHT22;61072;47.808;7.636;2023-12-20T12:27:13;7.90;99.90
21031;DHT22;61072;47.808;7.636;2023-12-20T12:29:40;7.80;99.90
21031;DHT22;61072;47.808;7.636;2023-12-20T12:32:07;7.80;99.90
21031;DHT22;61072;47.808;7.636;2023-12-20T12:34:35;7.70;99.90
21031;DHT22;61072;47.808;7.636;2023-12-20T12:37:06;7.70;99.90
21031;DHT22;61072;47.808;7.636;2023-12-20T12:39:33;7.60;99.90
21031;DHT22;61072;47.808;7.636;2023-12-20T12:42:00;7.60;99.90
21031;DHT22;61072;47.808;7.636;2023-12-20T12:44:27;7.50;99.90
21031;DHT22;61072;47.808;7.636;2023-12-20T12:46:53;7.50;99.90
21031;DHT22;61072;47.808;7.636;2023-12-20T12:49:21;7.50;99.90
21031;DHT22;61072;47.808;7.636;2023-12-20T12:51:51;7.50;99.90
21031;DHT22;61072;47.808;7.636;2023-12-20T12:54:18;7.50;99.90
21031;DHT22;61072;47.808;7.636;2023-12-20T12:56:45;7.50;99.90
21031;DHT22;61072;47.808;7.636;2023-12-20T12:59:14;7.50;99.90
21031;DHT22;61072;47.808;7.636;2023-12-20T13:01:40;7.50;99.90
21031;DHT22;61072;47.808;7.636;2023-12-20T13:04:08;7.50;99.90
21031;DHT22;61072;47.808;7.636;2023-12-20T13:06:37;7.60;99.90
21031;DHT22;61072;47.808;7.636;2023-12-20T13:09:05;7.60;99.90
21031;DHT22;61072;47.808;7.636;2023-12-20T13:11:33;7.70;99.90
21031;DHT22;61072;47.808;7.636;2023-12-20T13:14:01;7.70;99.90
21031;DHT22;61072;47.808;7.636;2023-12-20T13:16:28;7.80;99.90
21031;DHT22;61072;47.808;7.636;2023-12-20T13:18:54;7.80;99.90
21031;DHT22;61072;47.808;7.636;2023-12-20T13:21:22;7.90;99.90
21031;DHT22;61072;47.808;7.636;2023-12-20T13:23:49;8.00;99.90
21031;DHT22;61072;47.808;7.636;2023-12-20T13:26:16;8.00;99.90
21031;DHT22;61072;47.808;7.636;2023-12-20T13:28:42;8.10;99.90
21031;DHT22;61072;47.808;7.636;2023-12-20T13:31:09;8.10;99.90
21031;DHT22;61072;47.808;7.636;2023-12-20T13:33:36;8.10;99.90
21031;DHT22;61072;47.808;7.636;2023-12-20T13:36:04;8.20;99.90
21031;DHT22;61072;47.808;7.636;2023-12-20T13:38:33;8.20;99.90
21031;DHT22;61072;47.808;7.636;2023-12-20T13:41:00;8.10;99.90
21031;DHT22;61072;47.808;7.636;2023-12-20T13:43:27;8.10;99.90
21031;DHT22;61072;47.808;7.636;2023-12-20T13:45:54;8.10;99.90
21031;DHT22;61072;47.808;7.636;2023-12-20T13:48:20;8.10;99.90
21031;DHT22;61072;47.808;7.636;2023-12-20T13:50:47;8.10;99.90
21031;DHT22;61072;47.808;7.636;2023-12-20T13:53:14;8.10;99.90
21031;DHT22;61072;47.808;7.636;2023-12-20T13:55:41;8.10;99.90
21031;DHT22;61072;47.808;7.636;2023-12-20T13:58:07;8.10;99.90
21031;DHT22;61072;47.808;7.636;2023-12-20T14:00:36;8.10;99.90
21031;DHT22;61072;47.808;7.636;2023-12-20T14:03:04;8.10;99.90
21031;DHT22;61072;47.808;7.636;2023-12-20T14:05:31;8.10;99.90
21031;DHT22;61072;47.808;7.636;2023-12-20T14:07:58;8.10;99.90
21031;DHT22;61072;47.808;7.636;2023-12-20T14:10:26;8.00;99.90
21031;DHT22;61072;47.808;7.636;2023-12-20T14:12:55;8.00;99.90
21031;DHT22;61072;47.808;7.636;2023-12-20T14:15:22;8.00;99.90
21031;DHT22;61072;47.808;7.636;2023-12-20T14:17:52;8.00;99.90
21031;DHT22;61072;47.808;7.636;2023-12-20T14:20:19;8.00;99.90
21031;DHT22;61072;47.808;7.636;2023-12-20T14:22:46;8.00;99.90
21031;DHT22;61072;47.808;7.636;2023-12-20T14:25:14;8.00;99.90
21031;DHT22;61072;47.808;7.636;2023-12-20T14:27:41;8.00;99.90
21031;DHT22;61072;47.808;7.636;2023-12-20T14:30:11;7.90;99.90
21031;DHT22;61072;47.808;7.636;2023-12-20T14:32:38;7.80;99.90
21031;DHT22;61072;47.808;7.636;2023-12-20T14:35:09;7.80;99.90
21031;DHT22;61072;47.808;7.636;2023-12-20T14:37:36;7.70;99.90
21031;DHT22;61072;47.808;7.636;2023-12-20T14:40:09;7.60;99.90
21031;DHT22;61072;47.808;7.636;2023-12-20T14:42:42;7.50;99.90
21031;DHT22;61072;47.808;7.636;2023-12-20T14:45:10;7.40;99.90
21031;DHT22;61072;47.808;7.636;2023-12-20T14:47:37;7.40;99.90
21031;DHT22;61072;47.808;7.636;2023-12-20T14:50:04;7.40;99.90
21031;DHT22;61072;47.808;7.636;2023-12-20T14:52:32;7.40;99.90
21031;DHT22;61072;47.808;7.636;2023-12-20T14:55:01;7.40;99.90
21031;DHT22;61072;47.808;7.636;2023-12-20T14:57:29;7.40;99.90
21031;DHT22;61072;47.808;7.636;2023-12-20T14:59:56;7.30;99.90
21031;DHT22;61072;47.808;7.636;2023-12-20T15:02:23;7.40;99.90
21031;DHT22;61072;47.808;7.636;2023-12-20T15:04:50;7.40;99.90
21031;DHT22;61072;47.808;7.636;2023-12-20T15:07:18;7.40;99.90
21031;DHT22;61072;47.808;7.636;2023-12-20T15:09:45;7.40;99.90
21031;DHT22;61072;47.808;7.636;2023-12-20T15:12:13;7.30;99.90
21031;DHT22;61072;47.808;7.636;2023-12-20T15:14:40;7.40;99.90
21031;DHT22;61072;47.808;7.636;2023-12-20T15:17:07;7.30;99.90
21031;DHT22;61072;47.808;7.636;2023-12-20T15:19:34;7.30;99.90
21031;DHT22;61072;47.808;7.636;2023-12-20T15:22:01;7.30;99.90
21031;DHT22;61072;47.808;7.636;2023-12-20T15:24:28;7.30;99.90
21031;DHT22;61072;47.808;7.636;2023-12-20T15:26:55;7.20;99.90
21031;DHT22;61072;47.808;7.636;2023-12-20T15:29:22;7.20;99.90
21031;DHT22;61072;47.808;7.636;2023-12-20T15:31:49;7.10;99.90
21031;DHT22;61072;47.808;7.636;2023-12-20T15:34:15;7.10;99.90
21031;DHT22;61072;47.808;7.636;2023-12-20T15:36:43;7.10;99.90
21031;DHT22;61072;47.808;7.636;2023-12-20T15:39:10;7.00;99.90
21031;DHT22;61072;47.808;7.636;2023-12-20T15:41:36;7.00;99.90
21031;DHT22;61072;47.808;7.636;2023-12-20T15:44:03;6.90;99.90
21031;DHT22;61072;47.808;7.636;2023-12-20T15:46:30;6.90;99.90
21031;DHT22;61072;47.808;7.636;2023-12-20T15:48:57;6.80;99.90
21031;DHT22;61072;47.808;7.636;2023-12-20T15:51:23;6.80;99.90
21031;DHT22;61072;47.808;7.636;2023-12-20T15:53:51;6.80;99.90